Time;durP1;ratioP1;P1;durP2;ratioP2;P2;SDS_P1;SDS_P2;PMS_P1;PMS_P2;Temp;Humidity;BMP_temperature;BMP_pressure;BME280_temperature;BME280_humidity;BME280_pressure;Samples;Min_cycle;Max_cycle;Signal;HPM_P1;HPM_P2
2022/06/29 00:00:50;;;;;;;;;;;;;;;-143.90;100.00;55085.41;3045115;19;19946;-63
2022/06/29 00:01:51;;;;;;;;;;;;;;;-143.90;100.00;55051.66;3046629;19;19937;-64
2022/06/29 00:02:53;;;;;;;;;;;;;;;-143.90;100.00;55075.47;3046761;19;20740;-64
2022/06/29 00:03:54;;;;;;;;;;;;;;;-143.90;100.00;55135.03;3042089;19;19918;-64
2022/06/29 00:04:55;;;;;;;;;;;;;;;-143.90;100.00;55083.41;3044244;19;20260;-63
2022/06/29 00:05:55;;;;;;;;;;;;;;;-143.90;100.00;55101.28;3045068;19;19936;-63
2022/06/29 00:06:56;;;;;;;;;;;;;;;-143.90;100.00;55087.41;3045623;19;19990;-63
2022/06/29 00:07:57;;;;;;;;;;;;;;;-143.90;100.00;55095.34;3046443;19;19962;-63
2022/06/29 00:08:58;;;;;;;;;;;;;;;-143.90;100.00;55081.44;3049211;19;19940;-64
2022/06/29 00:09:59;;;;;;;;;;;;;;;-143.90;100.00;55107.25;3043538;19;19926;-64
2022/06/29 00:11:00;;;;;;;;;;;;;;;-143.90;100.00;55091.38;3040014;19;19936;-62
2022/06/29 00:12:00;;;;;;;;;;;;;;;-143.90;100.00;55091.38;3042393;19;20619;-64
2022/06/29 00:13:01;;;;;;;;;;;;;;;-143.90;100.00;55119.16;3045561;19;19923;-64
2022/06/29 00:14:05;;;;;;;;;;;;;;;-143.90;100.00;55077.47;3044964;19;19923;-64
2022/06/29 00:15:06;;;;;;;;;;;;;;;-143.90;100.00;55115.19;3045539;19;19923;-64
2022/06/29 00:16:07;;;;;;;;;;;;;;;-143.90;100.00;55119.16;3044013;19;19966;-63
2022/06/29 00:17:11;;;;;;;;;;;;;;;-143.90;100.00;55113.22;3045398;19;19919;-64
2022/06/29 00:18:12;;;;;;;;;;;;;;;-143.90;100.00;55079.44;3043910;19;20807;-64
2022/06/29 00:19:13;;;;;;;;;;;;;;;-143.90;100.00;55075.47;3045379;19;19968;-64
2022/06/29 00:20:33;;;;;;;;;;;;;;;-143.90;100.00;55075.47;3044927;19;19915;-64
2022/06/29 00:21:34;;;;;;;;;;;;;;;-143.90;100.00;55095.34;3042590;19;19943;-63
2022/06/29 00:22:35;;;;;;;;;;;;;;;-143.90;100.00;55051.66;3046745;19;19923;-64
2022/06/29 00:23:36;;;;;;;;;;;;;;;-143.90;100.00;55083.41;3043574;19;20478;-63
2022/06/29 00:24:37;;;;;;;;;;;;;;;-143.90;100.00;55077.47;3046195;19;19931;-62
2022/06/29 00:25:38;;;;;;;;;;;;;;;-143.90;100.00;55103.28;3045952;19;19915;-63
2022/06/29 00:26:38;;;;;;;;;;;;;;;-143.90;100.00;55087.41;3044669;19;19930;-64
2022/06/29 00:27:39;;;;;;;;;;;;;;;-143.90;100.00;55069.53;3041449;19;19927;-64
2022/06/29 00:28:40;;;;;;;;;;;;;;;-143.90;100.00;55093.34;3046298;19;19927;-62
2022/06/29 00:29:41;;;;;;;;;;;;;;;-143.90;100.00;55075.47;3041553;19;19922;-64
2022/06/29 00:30:42;;;;;;;;;;;;;;;-143.90;100.00;55045.69;3045962;19;19930;-64
2022/06/29 00:31:43;;;;;;;;;;;;;;;-143.90;100.00;55083.41;3043606;19;19926;-64
2022/06/29 00:32:44;;;;;;;;;;;;;;;-143.90;100.00;55119.16;3043852;19;19962;-64
2022/06/29 00:33:44;;;;;;;;;;;;;;;-143.90;100.00;55067.53;3046690;19;19953;-64
2022/06/29 00:34:45;;;;;;;;;;;;;;;-143.90;100.00;55049.66;3043455;19;19937;-64
2022/06/29 00:35:46;;;;;;;;;;;;;;;-143.90;100.00;55117.19;3044791;19;19931;-64
2022/06/29 00:36:47;;;;;;;;;;;;;;;-143.90;100.00;55087.41;3047293;19;19937;-64
2022/06/29 00:37:48;;;;;;;;;;;;;;;-143.90;100.00;55087.41;3043368;19;19911;-64
2022/06/29 00:38:49;;;;;;;;;;;;;;;-143.90;100.00;55099.31;3045420;19;19946;-64
2022/06/29 00:39:50;;;;;;;;;;;;;;;-143.90;100.00;55089.38;3045000;19;19942;-64
2022/06/29 00:40:51;;;;;;;;;;;;;;;-143.90;100.00;55067.53;3046614;19;20990;-64
2022/06/29 00:41:52;;;;;;;;;;;;;;;-143.90;100.00;55065.56;3043560;19;19946;-65
2022/06/29 00:42:53;;;;;;;;;;;;;;;-143.90;100.00;55091.38;3045022;19;20033;-64
2022/06/29 00:43:53;;;;;;;;;;;;;;;-143.90;100.00;55075.47;3047852;19;19926;-64
2022/06/29 00:44:54;;;;;;;;;;;;;;;-143.90;100.00;55131.06;3044126;19;21260;-64
2022/06/29 00:45:55;;;;;;;;;;;;;;;-143.90;100.00;55095.34;3044638;19;19926;-64
2022/06/29 00:46:57;;;;;;;;;;;;;;;-143.90;100.00;55113.22;3046482;19;19951;-64
2022/06/29 00:47:58;;;;;;;;;;;;;;;-143.90;100.00;55087.41;3041225;19;19938;-64
2022/06/29 00:48:59;;;;;;;;;;;;;;;-143.90;100.00;55055.63;3043550;19;21527;-64
2022/06/29 00:49:59;;;;;;;;;;;;;;;-143.90;100.00;55095.34;3040746;19;19925;-63
2022/06/29 00:51:01;;;;;;;;;;;;;;;-143.90;100.00;55109.22;3043986;19;19914;-63
2022/06/29 00:52:05;;;;;;;;;;;;;;;-143.90;100.00;55071.50;3044959;19;19923;-64
2022/06/29 00:53:06;;;;;;;;;;;;;;;-143.90;100.00;55049.66;3044983;19;19919;-64
2022/06/29 00:54:07;;;;;;;;;;;;;;;-143.90;100.00;55087.41;3042900;19;20733;-64
2022/06/29 00:55:10;;;;;;;;;;;;;;;-143.90;100.00;55083.41;3046059;19;19918;-64
2022/06/29 00:56:11;;;;;;;;;;;;;;;-143.90;100.00;55053.63;3041237;19;19929;-63
2022/06/29 00:57:13;;;;;;;;;;;;;;;-143.90;100.00;55079.44;3046144;19;19919;-62
2022/06/29 00:58:14;;;;;;;;;;;;;;;-143.90;100.00;55059.59;3043301;19;19930;-64
2022/06/29 00:59:18;;;;;;;;;;;;;;;-143.90;100.00;55091.38;3045438;19;19938;-64
2022/06/29 01:00:19;;;;;;;;;;;;;;;-143.90;100.00;55091.38;3044490;19;19927;-64
2022/06/29 01:01:20;;;;;;;;;;;;;;;-143.90;100.00;55083.41;3045294;19;19918;-64
2022/06/29 01:02:22;;;;;;;;;;;;;;;-143.90;100.00;55101.28;3042150;19;20006;-64
2022/06/29 01:03:23;;;;;;;;;;;;;;;-143.90;100.00;55091.38;3045112;19;19931;-64
2022/06/29 01:04:24;;;;;;;;;;;;;;;-143.90;100.00;55087.41;3046154;19;19922;-64
2022/06/29 01:05:26;;;;;;;;;;;;;;;-143.90;100.00;55107.25;3046672;19;20959;-64
2022/06/29 01:06:26;;;;;;;;;;;;;;;-143.90;100.00;55059.59;3046853;19;19922;-64
2022/06/29 01:07:28;;;;;;;;;;;;;;;-143.90;100.00;55079.44;3043729;19;19954;-63
2022/06/29 01:08:29;;;;;;;;;;;;;;;-143.90;100.00;55103.28;3044752;19;19922;-64
2022/06/29 01:09:30;;;;;;;;;;;;;;;-143.90;100.00;55091.38;3046070;19;19918;-64
2022/06/29 01:10:31;;;;;;;;;;;;;;;-143.90;100.00;55075.47;3044936;19;19919;-63
2022/06/29 01:11:32;;;;;;;;;;;;;;;-143.90;100.00;55059.59;3042302;19;20391;-64
2022/06/29 01:12:32;;;;;;;;;;;;;;;-143.90;100.00;55083.41;3043783;19;19919;-64
2022/06/29 01:13:33;;;;;;;;;;;;;;;-143.90;100.00;55057.59;3045569;19;19933;-64
2022/06/29 01:14:34;;;;;;;;;;;;;;;-143.90;100.00;55097.31;3043411;19;20755;-64
2022/06/29 01:15:35;;;;;;;;;;;;;;;-143.90;100.00;55131.06;3044837;19;19923;-64
2022/06/29 01:16:36;;;;;;;;;;;;;;;-143.90;100.00;55093.34;3043997;19;19952;-64
2022/06/29 01:17:37;;;;;;;;;;;;;;;-143.90;100.00;55099.31;3046672;19;20026;-64
2022/06/29 01:18:37;;;;;;;;;;;;;;;-143.90;100.00;55071.50;3043504;19;19926;-64
2022/06/29 01:19:39;;;;;;;;;;;;;;;-143.90;100.00;55099.31;3044382;19;19927;-64
2022/06/29 01:20:40;;;;;;;;;;;;;;;-143.90;100.00;55057.59;3043949;19;19926;-64
2022/06/29 01:21:41;;;;;;;;;;;;;;;-143.90;100.00;55107.25;3040524;19;19915;-63
2022/06/29 01:22:42;;;;;;;;;;;;;;;-143.90;100.00;55111.22;3043377;19;20252;-63
2022/06/29 01:23:42;;;;;;;;;;;;;;;-143.90;100.00;55107.25;3047517;19;19914;-63
2022/06/29 01:24:44;;;;;;;;;;;;;;;-143.90;100.00;55099.31;3044479;19;19931;-65
2022/06/29 01:25:48;;;;;;;;;;;;;;;-143.90;100.00;55085.41;3047460;19;20581;-64
2022/06/29 01:26:49;;;;;;;;;;;;;;;-143.90;100.00;55079.44;3045001;19;19927;-64
2022/06/29 01:27:50;;;;;;;;;;;;;;;-143.90;100.00;55103.28;3041881;19;19925;-64
2022/06/29 01:28:51;;;;;;;;;;;;;;;-143.90;100.00;55119.16;3044868;19;20749;-64
2022/06/29 01:29:51;;;;;;;;;;;;;;;-143.90;100.00;55115.19;3044379;19;19953;-64
2022/06/29 01:30:52;;;;;;;;;;;;;;;-143.90;100.00;55085.41;3044260;19;19923;-64
2022/06/29 01:31:54;;;;;;;;;;;;;;;-143.90;100.00;55087.41;3044935;19;20398;-62
2022/06/29 01:32:55;;;;;;;;;;;;;;;-143.90;100.00;55133.06;3044026;19;20484;-63
2022/06/29 01:33:56;;;;;;;;;;;;;;;-143.90;100.00;55087.41;3045243;19;20701;-63
2022/06/29 01:34:57;;;;;;;;;;;;;;;-143.90;100.00;55081.44;3041896;19;19923;-64
2022/06/29 01:35:58;;;;;;;;;;;;;;;-143.90;100.00;55099.31;3042374;19;19939;-64
2022/06/29 01:36:59;;;;;;;;;;;;;;;-143.90;100.00;55099.31;3047373;19;19948;-63
2022/06/29 01:37:59;;;;;;;;;;;;;;;-143.90;100.00;55071.50;3041657;19;19927;-64
2022/06/29 01:39:00;;;;;;;;;;;;;;;-143.90;100.00;55107.25;3043788;19;20285;-63
2022/06/29 01:40:02;;;;;;;;;;;;;;;-143.90;100.00;55055.63;3046104;19;19949;-64
2022/06/29 01:41:04;;;;;;;;;;;;;;;-143.90;100.00;55091.38;3041357;19;19947;-63
2022/06/29 01:42:05;;;;;;;;;;;;;;;-143.90;100.00;55083.41;3046213;19;19933;-63
2022/06/29 01:43:06;;;;;;;;;;;;;;;-143.90;100.00;55095.34;3048280;19;19922;-64
2022/06/29 01:44:06;;;;;;;;;;;;;;;-143.90;100.00;55135.03;3046596;19;19956;-64
2022/06/29 01:45:08;;;;;;;;;;;;;;;-143.90;100.00;55131.06;3047451;19;19949;-64
2022/06/29 01:46:08;;;;;;;;;;;;;;;-143.90;100.00;55079.44;3047391;19;19950;-64
2022/06/29 01:47:15;;;;;;;;;;;;;;;-143.90;100.00;55117.19;3046798;19;19919;-64
2022/06/29 01:48:16;;;;;;;;;;;;;;;-143.90;100.00;55065.56;3049944;19;19954;-64
2022/06/29 01:49:17;;;;;;;;;;;;;;;-143.90;100.00;55101.28;3044062;19;19919;-64
2022/06/29 01:50:18;;;;;;;;;;;;;;;-143.90;100.00;55095.34;3046596;19;19930;-63
2022/06/29 01:51:19;;;;;;;;;;;;;;;-143.90;100.00;55087.41;3042698;19;20410;-64
2022/06/29 01:52:20;;;;;;;;;;;;;;;-143.90;100.00;55081.44;3049253;19;19922;-64
2022/06/29 01:53:20;;;;;;;;;;;;;;;-143.90;100.00;55101.28;3047119;19;19927;-64
2022/06/29 01:54:22;;;;;;;;;;;;;;;-143.90;100.00;55077.47;3048061;19;20296;-64
2022/06/29 01:55:23;;;;;;;;;;;;;;;-143.90;100.00;55077.47;3048119;19;19944;-64
2022/06/29 01:56:23;;;;;;;;;;;;;;;-143.90;100.00;55085.41;3046207;19;19946;-63
2022/06/29 01:57:24;;;;;;;;;;;;;;;-143.90;100.00;55087.41;3047713;19;20018;-63
2022/06/29 01:58:25;;;;;;;;;;;;;;;-143.90;100.00;55063.56;3046942;19;20026;-63
2022/06/29 01:59:26;;;;;;;;;;;;;;;-143.90;100.00;55093.34;3049385;19;19925;-64
2022/06/29 02:00:27;;;;;;;;;;;;;;;-143.90;100.00;55139.03;3048087;19;19918;-63
2022/06/29 02:01:28;;;;;;;;;;;;;;;-143.90;100.00;55075.47;3046585;19;19918;-63
2022/06/29 02:02:28;;;;;;;;;;;;;;;-143.90;100.00;55099.31;3047144;19;19919;-64
2022/06/29 02:03:29;;;;;;;;;;;;;;;-143.90;100.00;55095.34;3047117;19;19919;-63
2022/06/29 02:04:30;;;;;;;;;;;;;;;-143.90;100.00;55075.47;3044254;19;19942;-63
2022/06/29 02:05:31;;;;;;;;;;;;;;;-143.90;100.00;55091.38;3045394;19;19953;-64
2022/06/29 02:06:32;;;;;;;;;;;;;;;-143.90;100.00;55063.56;3048326;19;19954;-63
2022/06/29 02:07:33;;;;;;;;;;;;;;;-143.90;100.00;55079.44;3047154;19;19918;-64
2022/06/29 02:08:33;;;;;;;;;;;;;;;-143.90;100.00;55095.34;3048448;19;19919;-63
2022/06/29 02:09:34;;;;;;;;;;;;;;;-143.90;100.00;55103.28;3046507;19;20327;-63
2022/06/29 02:10:35;;;;;;;;;;;;;;;-143.90;100.00;55111.22;3050483;19;19946;-63
2022/06/29 02:11:36;;;;;;;;;;;;;;;-143.90;100.00;55127.09;3047639;19;19938;-64
2022/06/29 02:12:37;;;;;;;;;;;;;;;-143.90;100.00;55083.41;3049325;19;19929;-63
2022/06/29 02:13:38;;;;;;;;;;;;;;;-143.90;100.00;55071.50;3046013;19;19915;-64
2022/06/29 02:14:39;;;;;;;;;;;;;;;-143.90;100.00;55095.34;3046213;19;20394;-64
2022/06/29 02:15:39;;;;;;;;;;;;;;;-143.90;100.00;55081.44;3040774;19;19946;-63
2022/06/29 02:16:41;;;;;;;;;;;;;;;-143.90;100.00;55107.25;3044955;19;19919;-63
2022/06/29 02:17:41;;;;;;;;;;;;;;;-143.90;100.00;55073.50;3048723;19;19918;-64
2022/06/29 02:18:42;;;;;;;;;;;;;;;-143.90;100.00;55063.56;3048958;19;19947;-64
2022/06/29 02:19:43;;;;;;;;;;;;;;;-143.90;100.00;55077.47;3047443;19;20371;-64
2022/06/29 02:20:44;;;;;;;;;;;;;;;-143.90;100.00;55087.41;3047736;19;20432;-64
2022/06/29 02:21:45;;;;;;;;;;;;;;;-143.90;100.00;55085.41;3046235;19;19911;-63
2022/06/29 02:22:46;;;;;;;;;;;;;;;-143.90;100.00;55115.19;3045716;19;19926;-64
2022/06/29 02:23:48;;;;;;;;;;;;;;;-143.90;100.00;55067.53;3048718;19;20376;-64
2022/06/29 02:24:49;;;;;;;;;;;;;;;-143.90;100.00;55097.31;3047235;19;19919;-63
2022/06/29 02:25:50;;;;;;;;;;;;;;;-143.90;100.00;55099.31;3047583;19;19918;-63
2022/06/29 02:26:50;;;;;;;;;;;;;;;-143.90;100.00;55123.13;3045428;19;19923;-64
2022/06/29 02:27:51;;;;;;;;;;;;;;;-143.90;100.00;55093.34;3048542;19;19950;-65
2022/06/29 02:28:53;;;;;;;;;;;;;;;-143.90;100.00;55119.16;3048776;19;19982;-64
2022/06/29 02:29:53;;;;;;;;;;;;;;;-143.90;100.00;55107.25;3045485;19;19935;-64
2022/06/29 02:34:52;;;;;;;;;;;;;;;-143.90;100.00;55109.22;3047607;19;19914;-64
2022/06/29 02:35:53;;;;;;;;;;;;;;;-143.90;100.00;55081.44;3045752;19;20012;-65
2022/06/29 02:36:54;;;;;;;;;;;;;;;-143.90;100.00;55091.38;3047381;19;19911;-62
2022/06/29 02:37:55;;;;;;;;;;;;;;;-143.90;100.00;55123.13;3045364;19;19919;-64
2022/06/29 02:38:56;;;;;;;;;;;;;;;-143.90;100.00;55075.47;3048376;19;19922;-65
2022/06/29 02:39:57;;;;;;;;;;;;;;;-143.90;100.00;55107.25;3047085;19;19918;-64
2022/06/29 02:40:57;;;;;;;;;;;;;;;-143.90;100.00;55093.34;3046524;19;19915;-62
2022/06/29 02:41:58;;;;;;;;;;;;;;;-143.90;100.00;55095.34;3047778;19;19915;-64
2022/06/29 02:43:00;;;;;;;;;;;;;;;-143.90;100.00;55107.25;3043980;19;20935;-64
2022/06/29 02:44:01;;;;;;;;;;;;;;;-143.90;100.00;55139.03;3047451;19;20299;-64
2022/06/29 02:45:02;;;;;;;;;;;;;;;-143.90;100.00;55059.59;3046362;19;19941;-64
2022/06/29 02:46:03;;;;;;;;;;;;;;;-143.90;100.00;55055.63;3046518;19;19918;-62
2022/06/29 02:47:04;;;;;;;;;;;;;;;-143.90;100.00;55107.25;3048587;19;19922;-64
2022/06/29 02:48:05;;;;;;;;;;;;;;;-143.90;100.00;55129.09;3047411;19;19927;-63
2022/06/29 02:49:05;;;;;;;;;;;;;;;-143.90;100.00;55079.44;3049274;19;19961;-63
2022/06/29 02:50:06;;;;;;;;;;;;;;;-143.90;100.00;55085.41;3046969;19;19923;-64
2022/06/29 02:51:08;;;;;;;;;;;;;;;-143.90;100.00;55109.22;3049093;19;19929;-64
2022/06/29 02:52:09;;;;;;;;;;;;;;;-143.90;100.00;55111.22;3048609;19;19926;-63
2022/06/29 02:53:10;;;;;;;;;;;;;;;-143.90;100.00;55119.16;3046694;19;19929;-64
2022/06/29 02:54:10;;;;;;;;;;;;;;;-143.90;100.00;55079.44;3046095;19;20295;-64
2022/06/29 02:55:11;;;;;;;;;;;;;;;-143.90;100.00;55119.16;3046948;19;19930;-64
2022/06/29 02:56:12;;;;;;;;;;;;;;;-143.90;100.00;55085.41;3046193;19;19915;-63
2022/06/29 02:57:13;;;;;;;;;;;;;;;-143.90;100.00;55079.44;3047967;19;20801;-64
2022/06/29 02:58:14;;;;;;;;;;;;;;;-143.90;100.00;55073.50;3043483;19;19922;-64
2022/06/29 02:59:14;;;;;;;;;;;;;;;-143.90;100.00;55077.47;3046300;19;19938;-64
2022/06/29 03:00:16;;;;;;;;;;;;;;;-143.90;100.00;55115.19;3048111;19;20446;-63
2022/06/29 03:01:16;;;;;;;;;;;;;;;-143.90;100.00;55131.06;3045800;19;19919;-63
2022/06/29 03:02:17;;;;;;;;;;;;;;;-143.90;100.00;55111.22;3048365;19;20489;-63
2022/06/29 03:03:18;;;;;;;;;;;;;;;-143.90;100.00;55099.31;3046790;19;19922;-64
2022/06/29 03:04:19;;;;;;;;;;;;;;;-143.90;100.00;55111.22;3044977;19;20672;-64
2022/06/29 03:05:20;;;;;;;;;;;;;;;-143.90;100.00;55127.09;3045731;19;19918;-64
2022/06/29 03:06:21;;;;;;;;;;;;;;;-143.90;100.00;55073.50;3043885;19;19922;-63
2022/06/29 03:07:21;;;;;;;;;;;;;;;-143.90;100.00;55119.16;3045952;19;20355;-64
2022/06/29 03:08:22;;;;;;;;;;;;;;;-143.90;100.00;55109.22;3049200;19;19927;-64
2022/06/29 03:09:23;;;;;;;;;;;;;;;-143.90;100.00;55083.41;3045773;19;19923;-62
2022/06/29 03:10:24;;;;;;;;;;;;;;;-143.90;100.00;55055.63;3047279;19;19922;-64
2022/06/29 03:11:25;;;;;;;;;;;;;;;-143.90;100.00;55131.06;3046761;19;20258;-64
2022/06/29 03:12:26;;;;;;;;;;;;;;;-143.90;100.00;55081.44;3047024;19;19926;-64
2022/06/29 03:13:26;;;;;;;;;;;;;;;-143.90;100.00;55095.34;3048031;19;19918;-64
2022/06/29 03:14:27;;;;;;;;;;;;;;;-143.90;100.00;55115.19;3046773;19;19935;-64
2022/06/29 03:15:28;;;;;;;;;;;;;;;-143.90;100.00;55115.19;3046535;19;19925;-64
2022/06/29 03:16:29;;;;;;;;;;;;;;;-143.90;100.00;55071.50;3045332;19;19949;-64
2022/06/29 03:17:30;;;;;;;;;;;;;;;-143.90;100.00;55095.34;3044625;19;19985;-64
2022/06/29 03:18:31;;;;;;;;;;;;;;;-143.90;100.00;55079.44;3047233;19;19939;-63
2022/06/29 03:19:32;;;;;;;;;;;;;;;-143.90;100.00;55099.31;3046183;19;19925;-63
2022/06/29 03:20:32;;;;;;;;;;;;;;;-143.90;100.00;55071.50;3043603;19;19939;-64
2022/06/29 03:21:33;;;;;;;;;;;;;;;-143.90;100.00;55099.31;3047672;19;19922;-63
2022/06/29 03:22:34;;;;;;;;;;;;;;;-143.90;100.00;55115.19;3045137;19;20760;-64
2022/06/29 03:23:35;;;;;;;;;;;;;;;-143.90;100.00;55087.41;3044680;19;19919;-64
2022/06/29 03:24:36;;;;;;;;;;;;;;;-143.90;100.00;55061.59;3047114;19;20383;-64
2022/06/29 03:25:37;;;;;;;;;;;;;;;-143.90;100.00;55103.28;3045116;19;19926;-64
2022/06/29 03:26:41;;;;;;;;;;;;;;;-143.90;100.00;55125.13;3046339;19;19923;-64
2022/06/29 03:27:42;;;;;;;;;;;;;;;-143.90;100.00;55095.34;3043716;19;20672;-64
2022/06/29 03:28:42;;;;;;;;;;;;;;;-143.90;100.00;55093.34;3046136;19;19942;-64
2022/06/29 03:29:43;;;;;;;;;;;;;;;-143.90;100.00;55063.56;3046044;19;19922;-63
2022/06/29 03:30:44;;;;;;;;;;;;;;;-143.90;100.00;55083.41;3045622;19;19991;-64
2022/06/29 03:31:45;;;;;;;;;;;;;;;-143.90;100.00;55127.09;3045737;19;19943;-64
2022/06/29 03:32:46;;;;;;;;;;;;;;;-143.90;100.00;55111.22;3045463;19;19915;-64
2022/06/29 03:33:46;;;;;;;;;;;;;;;-143.90;100.00;55071.50;3045981;19;19922;-64
2022/06/29 03:34:47;;;;;;;;;;;;;;;-143.90;100.00;55103.28;3048925;19;19918;-64
2022/06/29 03:35:48;;;;;;;;;;;;;;;-143.90;100.00;55099.31;3046212;19;19918;-65
2022/06/29 03:36:49;;;;;;;;;;;;;;;-143.90;100.00;55083.41;3044123;19;19923;-65
2022/06/29 03:37:50;;;;;;;;;;;;;;;-143.90;100.00;55085.41;3048570;19;20299;-63
2022/06/29 03:38:51;;;;;;;;;;;;;;;-143.90;100.00;55109.22;3041854;19;19926;-63
2022/06/29 03:39:52;;;;;;;;;;;;;;;-143.90;100.00;55071.50;3044010;19;19911;-64
2022/06/29 03:40:53;;;;;;;;;;;;;;;-143.90;100.00;55095.34;3045535;19;20285;-63
2022/06/29 03:41:54;;;;;;;;;;;;;;;-143.90;100.00;55109.22;3045610;19;19971;-62
2022/06/29 03:42:55;;;;;;;;;;;;;;;-143.90;100.00;55051.66;3046849;19;19994;-63
2022/06/29 03:43:56;;;;;;;;;;;;;;;-143.90;100.00;55107.25;3039649;19;19994;-64
2022/06/29 03:44:57;;;;;;;;;;;;;;;-143.90;100.00;55097.31;3044882;19;19950;-63
2022/06/29 03:45:58;;;;;;;;;;;;;;;-143.90;100.00;55083.41;3043438;19;19933;-64
2022/06/29 03:46:58;;;;;;;;;;;;;;;-143.90;100.00;55095.34;3048659;19;20016;-63
2022/06/29 03:47:59;;;;;;;;;;;;;;;-143.90;100.00;55079.44;3045168;19;20607;-63
2022/06/29 03:49:00;;;;;;;;;;;;;;;-143.90;100.00;55079.44;3043921;19;19956;-64
2022/06/29 03:50:01;;;;;;;;;;;;;;;-143.90;100.00;55101.28;3046985;19;19923;-64
2022/06/29 03:51:02;;;;;;;;;;;;;;;-143.90;100.00;55067.53;3045920;19;20307;-64
2022/06/29 03:52:03;;;;;;;;;;;;;;;-143.90;100.00;55059.59;3047062;19;19918;-62
2022/06/29 03:53:04;;;;;;;;;;;;;;;-143.90;100.00;55139.03;3045510;19;19937;-64
2022/06/29 03:54:05;;;;;;;;;;;;;;;-143.90;100.00;55087.41;3045314;19;19982;-64
2022/06/29 03:55:06;;;;;;;;;;;;;;;-143.90;100.00;55103.28;3048393;19;19947;-64
2022/06/29 03:56:07;;;;;;;;;;;;;;;-143.90;100.00;55095.34;3043811;19;19922;-64
2022/06/29 03:57:08;;;;;;;;;;;;;;;-143.90;100.00;55079.44;3042474;19;20815;-63
2022/06/29 03:58:08;;;;;;;;;;;;;;;-143.90;100.00;55099.31;3046900;19;19911;-62
2022/06/29 03:59:09;;;;;;;;;;;;;;;-143.90;100.00;55115.19;3045023;19;19919;-64
2022/06/29 04:00:10;;;;;;;;;;;;;;;-143.90;100.00;55107.25;3047029;19;19915;-64
2022/06/29 04:01:14;;;;;;;;;;;;;;;-143.90;100.00;55109.22;3043176;19;19941;-64
2022/06/29 04:02:15;;;;;;;;;;;;;;;-143.90;100.00;55091.38;3045318;19;19974;-64
2022/06/29 04:03:16;;;;;;;;;;;;;;;-143.90;100.00;55093.34;3046823;19;19926;-64
2022/06/29 04:04:17;;;;;;;;;;;;;;;-143.90;100.00;55101.28;3044837;19;19936;-64
2022/06/29 04:05:18;;;;;;;;;;;;;;;-143.90;100.00;55087.41;3045655;19;19958;-63
2022/06/29 04:06:18;;;;;;;;;;;;;;;-143.90;100.00;55083.41;3042267;19;19950;-64
2022/06/29 04:07:20;;;;;;;;;;;;;;;-143.90;100.00;55079.44;3041976;19;19926;-64
2022/06/29 04:08:23;;;;;;;;;;;;;;;-143.90;100.00;55087.41;3042278;19;22082;-63
2022/06/29 04:09:24;;;;;;;;;;;;;;;-143.90;100.00;55111.22;3043136;19;20014;-63
2022/06/29 04:10:25;;;;;;;;;;;;;;;-143.90;100.00;55099.31;3042320;19;19939;-63
2022/06/29 04:12:45;;;;;;;;;;;;;;;-143.90;100.00;55075.47;3046548;19;19922;-63
2022/06/29 04:13:46;;;;;;;;;;;;;;;-143.90;100.00;55091.38;3044176;19;19922;-64
2022/06/29 04:14:47;;;;;;;;;;;;;;;-143.90;100.00;55099.31;3046101;19;19957;-63
2022/06/29 04:15:48;;;;;;;;;;;;;;;-143.90;100.00;55097.31;3043424;19;20308;-62
2022/06/29 04:16:49;;;;;;;;;;;;;;;-143.90;100.00;55061.59;3044332;19;19919;-64
2022/06/29 04:17:50;;;;;;;;;;;;;;;-143.90;100.00;55059.59;3043932;19;19914;-63
2022/06/29 04:18:51;;;;;;;;;;;;;;;-143.90;100.00;55107.25;3042772;19;19927;-63
2022/06/29 04:19:52;;;;;;;;;;;;;;;-143.90;100.00;55075.47;3046684;19;19914;-64
2022/06/29 04:21:06;;;;;;;;;;;;;;;-143.90;100.00;55067.53;3043763;19;19923;-64
2022/06/29 04:22:07;;;;;;;;;;;;;;;-143.90;100.00;55075.47;3045413;19;19927;-63
2022/06/29 04:23:08;;;;;;;;;;;;;;;-143.90;100.00;55055.63;3047347;19;20794;-64
2022/06/29 04:24:09;;;;;;;;;;;;;;;-143.90;100.00;55051.66;3045583;19;20002;-66
2022/06/29 04:25:10;;;;;;;;;;;;;;;-143.90;100.00;55091.38;3047203;19;20459;-64
2022/06/29 04:26:11;;;;;;;;;;;;;;;-143.90;100.00;55053.63;3046086;19;19919;-64
2022/06/29 04:27:12;;;;;;;;;;;;;;;-143.90;100.00;55071.50;3045661;19;19919;-64
2022/06/29 04:28:12;;;;;;;;;;;;;;;-143.90;100.00;55051.66;3048258;19;19942;-64
2022/06/29 04:29:13;;;;;;;;;;;;;;;-143.90;100.00;55087.41;3044643;19;20015;-64
2022/06/29 04:30:14;;;;;;;;;;;;;;;-143.90;100.00;55067.53;3045970;19;20016;-63
2022/06/29 04:31:15;;;;;;;;;;;;;;;-143.90;100.00;55071.50;3047919;19;19919;-63
2022/06/29 04:32:16;;;;;;;;;;;;;;;-143.90;100.00;55043.72;3043528;19;19919;-63
2022/06/29 04:33:17;;;;;;;;;;;;;;;-143.90;100.00;55033.78;3049287;19;19923;-64
2022/06/29 04:34:17;;;;;;;;;;;;;;;-143.90;100.00;55031.78;3045118;19;19925;-64
2022/06/29 04:35:18;;;;;;;;;;;;;;;-143.90;100.00;55043.72;3044928;19;19930;-64
2022/06/29 04:36:19;;;;;;;;;;;;;;;-143.90;100.00;55067.53;3047081;19;20377;-64
2022/06/29 04:37:20;;;;;;;;;;;;;;;-143.90;100.00;55047.69;3046545;19;19926;-63
2022/06/29 04:38:21;;;;;;;;;;;;;;;-143.90;100.00;55049.66;3047305;19;19930;-64
2022/06/29 04:39:22;;;;;;;;;;;;;;;-143.90;100.00;55035.78;3044629;19;19929;-64
2022/06/29 04:40:22;;;;;;;;;;;;;;;-143.90;100.00;55041.72;3043936;19;19938;-64
2022/06/29 04:41:23;;;;;;;;;;;;;;;-143.90;100.00;55031.78;3046327;19;19922;-65
2022/06/29 04:42:24;;;;;;;;;;;;;;;-143.90;100.00;55035.78;3042967;19;19919;-63
2022/06/29 04:43:27;;;;;;;;;;;;;;;-143.90;100.00;55039.75;3043648;19;19935;-63
2022/06/29 04:44:28;;;;;;;;;;;;;;;-143.90;100.00;55029.81;3046649;19;19923;-62
2022/06/29 04:46:48;;;;;;;;;;;;;;;-143.90;100.00;55021.88;3044961;19;20236;-63
2022/06/29 04:47:48;;;;;;;;;;;;;;;-143.90;100.00;55031.78;3048206;19;19938;-63
2022/06/29 04:48:50;;;;;;;;;;;;;;;-143.90;100.00;55027.81;3044941;19;19921;-63
2022/06/29 04:49:51;;;;;;;;;;;;;;;-143.90;100.00;55029.81;3046498;19;19919;-62
2022/06/29 04:50:52;;;;;;;;;;;;;;;-143.90;100.00;55047.69;3044101;19;19923;-63
2022/06/29 04:51:53;;;;;;;;;;;;;;;-143.90;100.00;55043.72;3045226;19;20414;-62
2022/06/29 04:52:54;;;;;;;;;;;;;;;-143.90;100.00;55011.94;3047795;19;19919;-62
2022/06/29 04:53:56;;;;;;;;;;;;;;;-143.90;100.00;55021.88;3043316;19;19919;-62
2022/06/29 04:54:56;;;;;;;;;;;;;;;-143.90;100.00;54996.06;3044108;19;19929;-63
2022/06/29 04:55:57;;;;;;;;;;;;;;;-143.90;100.00;55039.75;3045382;19;19945;-63
2022/06/29 04:56:58;;;;;;;;;;;;;;;-143.90;100.00;55031.78;3041823;19;19923;-63
2022/06/29 04:57:59;;;;;;;;;;;;;;;-143.90;100.00;55015.91;3045088;19;19922;-63
2022/06/29 04:59:00;;;;;;;;;;;;;;;-143.90;100.00;54988.13;3043909;19;19945;-62
2022/06/29 05:00:01;;;;;;;;;;;;;;;-143.90;100.00;55011.94;3044648;19;19997;-63
2022/06/29 05:01:02;;;;;;;;;;;;;;;-143.90;100.00;54986.13;3043771;19;19933;-64
2022/06/29 05:02:03;;;;;;;;;;;;;;;-143.90;100.00;55011.94;3045884;19;19914;-63
2022/06/29 05:03:04;;;;;;;;;;;;;;;-143.90;100.00;54980.19;3046268;19;19914;-63
2022/06/29 05:04:05;;;;;;;;;;;;;;;-143.90;100.00;54996.06;3044545;19;19923;-64
2022/06/29 05:05:06;;;;;;;;;;;;;;;-143.90;100.00;55031.78;3045909;19;19970;-65
2022/06/29 05:06:06;;;;;;;;;;;;;;;-143.90;100.00;55023.84;3045692;19;19922;-63
2022/06/29 05:07:07;;;;;;;;;;;;;;;-143.90;99.24;55000.03;3043648;19;19922;-64
2022/06/29 05:08:08;;;;;;;;;;;;;;;-143.90;98.71;55019.88;3044980;19;19922;-63
2022/06/29 05:09:09;;;;;;;;;;;;;;;-143.90;99.68;55002.00;3042656;19;19932;-63
2022/06/29 05:10:10;;;;;;;;;;;;;;;-143.90;99.29;55000.03;3045226;19;20746;-64
2022/06/29 05:11:13;;;;;;;;;;;;;;;-143.90;96.95;55039.75;3044691;19;20022;-63
2022/06/29 05:12:14;;;;;;;;;;;;;;;-143.90;97.68;55011.94;3045545;19;19923;-63
2022/06/29 05:13:15;;;;;;;;;;;;;;;-143.90;95.59;55004.00;3046664;19;20013;-63